sensor_id;sensor_type;location;lat;lon;timestamp;temperature;humidity
13426;DHT22;6785;57.918;12.530;2023-05-10T00:02:07;10.20;99.90
13426;DHT22;6785;57.918;12.530;2023-05-10T00:04:34;10.20;99.90
13426;DHT22;6785;57.918;12.530;2023-05-10T00:07:01;10.10;99.90
13426;DHT22;6785;57.918;12.530;2023-05-10T00:09:28;10.10;99.90
13426;DHT22;6785;57.918;12.530;2023-05-10T00:11:54;10.10;99.90
13426;DHT22;6785;57.918;12.530;2023-05-10T00:14:23;10.10;99.90
13426;DHT22;6785;57.918;12.530;2023-05-10T00:16:50;10.10;99.90
13426;DHT22;6785;57.918;12.530;2023-05-10T00:19:18;10.00;99.90
13426;DHT22;6785;57.918;12.530;2023-05-10T00:21:45;10.00;99.90
13426;DHT22;6785;57.918;12.530;2023-05-10T00:24:12;10.00;99.90
13426;DHT22;6785;57.918;12.530;2023-05-10T00:26:38;9.90;99.90
13426;DHT22;6785;57.918;12.530;2023-05-10T00:29:06;9.90;99.90
13426;DHT22;6785;57.918;12.530;2023-05-10T00:31:33;9.90;99.90
13426;DHT22;6785;57.918;12.530;2023-05-10T00:33:59;9.90;99.90
13426;DHT22;6785;57.918;12.530;2023-05-10T00:36:28;9.90;99.90
13426;DHT22;6785;57.918;12.530;2023-05-10T00:38:54;9.80;99.90
13426;DHT22;6785;57.918;12.530;2023-05-10T00:41:21;9.80;99.90
13426;DHT22;6785;57.918;12.530;2023-05-10T00:43:48;9.80;99.90
13426;DHT22;6785;57.918;12.530;2023-05-10T00:46:15;9.70;99.90
13426;DHT22;6785;57.918;12.530;2023-05-10T00:48:43;9.70;99.90
13426;DHT22;6785;57.918;12.530;2023-05-10T00:51:10;9.80;99.90
13426;DHT22;6785;57.918;12.530;2023-05-10T00:53:38;9.70;99.90
13426;DHT22;6785;57.918;12.530;2023-05-10T00:56:05;9.70;99.90
13426;DHT22;6785;57.918;12.530;2023-05-10T00:58:32;9.70;99.90
13426;DHT22;6785;57.918;12.530;2023-05-10T01:00:58;9.60;99.90
13426;DHT22;6785;57.918;12.530;2023-05-10T01:03:26;9.70;99.90
13426;DHT22;6785;57.918;12.530;2023-05-10T01:05:54;9.60;99.90
13426;DHT22;6785;57.918;12.530;2023-05-10T01:08:21;9.60;99.90
13426;DHT22;6785;57.918;12.530;2023-05-10T01:10:49;9.70;99.90
13426;DHT22;6785;57.918;12.530;2023-05-10T01:13:23;9.70;99.90
13426;DHT22;6785;57.918;12.530;2023-05-10T01:15:52;9.70;99.90
13426;DHT22;6785;57.918;12.530;2023-05-10T01:18:20;9.60;99.90
13426;DHT22;6785;57.918;12.530;2023-05-10T01:20:54;9.50;99.90
13426;DHT22;6785;57.918;12.530;2023-05-10T01:23:36;9.50;99.90
13426;DHT22;6785;57.918;12.530;2023-05-10T01:26:16;9.40;99.90
13426;DHT22;6785;57.918;12.530;2023-05-10T01:29:04;9.30;99.90
13426;DHT22;6785;57.918;12.530;2023-05-10T01:31:59;9.40;99.90
13426;DHT22;6785;57.918;12.530;2023-05-10T01:34:35;9.40;99.90
13426;DHT22;6785;57.918;12.530;2023-05-10T01:37:07;9.50;99.90
13426;DHT22;6785;57.918;12.530;2023-05-10T01:39:42;9.40;99.90
13426;DHT22;6785;57.918;12.530;2023-05-10T01:42:16;9.40;99.90
13426;DHT22;6785;57.918;12.530;2023-05-10T01:44:56;9.40;99.90
13426;DHT22;6785;57.918;12.530;2023-05-10T01:47:31;9.40;99.90
13426;DHT22;6785;57.918;12.530;2023-05-10T01:50:03;9.40;99.90
13426;DHT22;6785;57.918;12.530;2023-05-10T01:52:33;9.40;99.90
13426;DHT22;6785;57.918;12.530;2023-05-10T01:55:06;9.40;99.90
13426;DHT22;6785;57.918;12.530;2023-05-10T01:57:35;9.40;99.90
13426;DHT22;6785;57.918;12.530;2023-05-10T02:00:07;9.40;99.90
13426;DHT22;6785;57.918;12.530;2023-05-10T02:02:37;9.40;99.90
13426;DHT22;6785;57.918;12.530;2023-05-10T02:05:06;9.40;99.90
13426;DHT22;6785;57.918;12.530;2023-05-10T02:07:35;9.40;99.90
13426;DHT22;6785;57.918;12.530;2023-05-10T02:10:04;9.40;99.90
13426;DHT22;6785;57.918;12.530;2023-05-10T02:12:32;9.30;99.90
13426;DHT22;6785;57.918;12.530;2023-05-10T02:15:04;9.20;99.90
13426;DHT22;6785;57.918;12.530;2023-05-10T02:17:32;9.10;99.90
13426;DHT22;6785;57.918;12.530;2023-05-10T02:20:01;9.10;99.90
13426;DHT22;6785;57.918;12.530;2023-05-10T02:22:29;9.10;99.90
13426;DHT22;6785;57.918;12.530;2023-05-10T02:24:57;9.00;99.90
13426;DHT22;6785;57.918;12.530;2023-05-10T02:27:26;9.00;99.90
13426;DHT22;6785;57.918;12.530;2023-05-10T02:29:54;9.00;99.90
13426;DHT22;6785;57.918;12.530;2023-05-10T02:32:21;8.90;99.90
13426;DHT22;6785;57.918;12.530;2023-05-10T02:34:49;9.00;99.90
13426;DHT22;6785;57.918;12.530;2023-05-10T02:37:19;9.00;99.90
13426;DHT22;6785;57.918;12.530;2023-05-10T02:39:47;9.00;99.90
13426;DHT22;6785;57.918;12.530;2023-05-10T02:42:16;9.00;99.90
13426;DHT22;6785;57.918;12.530;2023-05-10T02:44:46;9.00;99.90
13426;DHT22;6785;57.918;12.530;2023-05-10T02:47:14;8.90;99.90
13426;DHT22;6785;57.918;12.530;2023-05-10T02:49:41;8.90;99.90
13426;DHT22;6785;57.918;12.530;2023-05-10T02:52:08;8.90;99.90
13426;DHT22;6785;57.918;12.530;2023-05-10T02:54:41;8.90;99.90
13426;DHT22;6785;57.918;12.530;2023-05-10T02:57:13;8.90;99.90
13426;DHT22;6785;57.918;12.530;2023-05-10T02:59:41;8.90;99.90
13426;DHT22;6785;57.918;12.530;2023-05-10T03:02:10;8.90;99.90
13426;DHT22;6785;57.918;12.530;2023-05-10T03:04:37;8.90;99.90
13426;DHT22;6785;57.918;12.530;2023-05-10T03:07:04;9.00;99.90
13426;DHT22;6785;57.918;12.530;2023-05-10T03:09:31;9.00;99.90
13426;DHT22;6785;57.918;12.530;2023-05-10T03:12:07;9.00;99.90
13426;DHT22;6785;57.918;12.530;2023-05-10T03:14:45;8.90;99.90
13426;DHT22;6785;57.918;12.530;2023-05-10T03:17:20;8.90;99.90
13426;DHT22;6785;57.918;12.530;2023-05-10T03:19:53;8.90;99.90
13426;DHT22;6785;57.918;12.530;2023-05-10T03:22:24;8.80;99.90
13426;DHT22;6785;57.918;12.530;2023-05-10T03:24:54;8.70;99.90
13426;DHT22;6785;57.918;12.530;2023-05-10T03:27:25;8.70;99.90
13426;DHT22;6785;57.918;12.530;2023-05-10T03:29:53;8.60;99.90
13426;DHT22;6785;57.918;12.530;2023-05-10T03:32:20;8.60;99.90
13426;DHT22;6785;57.918;12.530;2023-05-10T03:34:47;8.60;99.90
13426;DHT22;6785;57.918;12.530;2023-05-10T03:37:13;8.60;99.90
13426;DHT22;6785;57.918;12.530;2023-05-10T03:39:40;8.50;99.90
13426;DHT22;6785;57.918;12.530;2023-05-10T03:42:07;8.60;99.90
13426;DHT22;6785;57.918;12.530;2023-05-10T03:44:35;8.60;99.90
13426;DHT22;6785;57.918;12.530;2023-05-10T03:47:02;8.50;99.90
13426;DHT22;6785;57.918;12.530;2023-05-10T03:49:29;8.60;99.90
13426;DHT22;6785;57.918;12.530;2023-05-10T03:51:56;8.60;99.90
13426;DHT22;6785;57.918;12.530;2023-05-10T03:54:22;8.60;99.90
13426;DHT22;6785;57.918;12.530;2023-05-10T03:56:49;8.70;99.90
13426;DHT22;6785;57.918;12.530;2023-05-10T03:59:16;8.70;99.90
13426;DHT22;6785;57.918;12.530;2023-05-10T04:01:44;8.80;99.90
13426;DHT22;6785;57.918;12.530;2023-05-10T04:04:10;8.80;99.90
13426;DHT22;6785;57.918;12.530;2023-05-10T04:06:37;8.80;99.90
13426;DHT22;6785;57.918;12.530;2023-05-10T04:09:04;8.70;99.90
13426;DHT22;6785;57.918;12.530;2023-05-10T04:11:31;8.70;99.90
13426;DHT22;6785;57.918;12.530;2023-05-10T04:13:58;8.70;99.90
13426;DHT22;6785;57.918;12.530;2023-05-10T04:16:24;8.70;99.90
13426;DHT22;6785;57.918;12.530;2023-05-10T04:18:52;8.70;99.90
13426;DHT22;6785;57.918;12.530;2023-05-10T04:21:19;8.80;99.90
13426;DHT22;6785;57.918;12.530;2023-05-10T04:23:46;8.80;99.90
13426;DHT22;6785;57.918;12.530;2023-05-10T04:26:13;8.90;99.90
13426;DHT22;6785;57.918;12.530;2023-05-10T04:28:39;9.00;99.90
13426;DHT22;6785;57.918;12.530;2023-05-10T04:31:08;9.00;99.90
13426;DHT22;6785;57.918;12.530;2023-05-10T04:33:35;9.00;99.90
13426;DHT22;6785;57.918;12.530;2023-05-10T04:36:04;9.10;99.90
13426;DHT22;6785;57.918;12.530;2023-05-10T04:38:31;9.20;99.90
13426;DHT22;6785;57.918;12.530;2023-05-10T04:41:04;9.20;99.90
13426;DHT22;6785;57.918;12.530;2023-05-10T04:43:32;9.30;99.90
13426;DHT22;6785;57.918;12.530;2023-05-10T04:46:02;9.30;99.90
13426;DHT22;6785;57.918;12.530;2023-05-10T04:48:28;9.40;99.90
13426;DHT22;6785;57.918;12.530;2023-05-10T04:50:55;9.40;99.90
13426;DHT22;6785;57.918;12.530;2023-05-10T04:53:23;9.50;99.90
13426;DHT22;6785;57.918;12.530;2023-05-10T04:55:50;9.60;99.90
13426;DHT22;6785;57.918;12.530;2023-05-10T04:58:17;9.70;99.90
13426;DHT22;6785;57.918;12.530;2023-05-10T05:00:43;9.80;99.90
13426;DHT22;6785;57.918;12.530;2023-05-10T05:03:10;9.90;99.90
13426;DHT22;6785;57.918;12.530;2023-05-10T05:05:37;10.10;99.90
13426;DHT22;6785;57.918;12.530;2023-05-10T05:08:04;10.20;99.90
13426;DHT22;6785;57.918;12.530;2023-05-10T05:10:35;10.20;99.90
13426;DHT22;6785;57.918;12.530;2023-05-10T05:13:08;10.30;99.90
13426;DHT22;6785;57.918;12.530;2023-05-10T05:15:42;10.40;99.90
13426;DHT22;6785;57.918;12.530;2023-05-10T05:18:09;10.50;99.90
13426;DHT22;6785;57.918;12.530;2023-05-10T05:20:36;10.60;99.90
13426;DHT22;6785;57.918;12.530;2023-05-10T05:23:03;10.70;99.90
13426;DHT22;6785;57.918;12.530;2023-05-10T05:25:29;10.80;99.90
13426;DHT22;6785;57.918;12.530;2023-05-10T05:27:57;10.90;99.90
13426;DHT22;6785;57.918;12.530;2023-05-10T05:30:24;11.00;99.90
13426;DHT22;6785;57.918;12.530;2023-05-10T05:32:51;11.10;99.90
13426;DHT22;6785;57.918;12.530;2023-05-10T05:35:18;11.20;99.90
13426;DHT22;6785;57.918;12.530;2023-05-10T05:37:45;11.40;99.90
13426;DHT22;6785;57.918;12.530;2023-05-10T05:40:12;11.40;99.90
13426;DHT22;6785;57.918;12.530;2023-05-10T05:42:39;11.60;99.90
13426;DHT22;6785;57.918;12.530;2023-05-10T05:45:08;11.70;99.90
13426;DHT22;6785;57.918;12.530;2023-05-10T05:47:38;11.90;99.90
13426;DHT22;6785;57.918;12.530;2023-05-10T05:50:06;12.00;99.90
13426;DHT22;6785;57.918;12.530;2023-05-10T05:52:32;12.10;99.90
13426;DHT22;6785;57.918;12.530;2023-05-10T05:54:59;12.20;99.90
13426;DHT22;6785;57.918;12.530;2023-05-10T05:57:26;12.30;99.90
13426;DHT22;6785;57.918;12.530;2023-05-10T05:59:53;12.40;99.90
13426;DHT22;6785;57.918;12.530;2023-05-10T06:02:21;12.50;99.90
13426;DHT22;6785;57.918;12.530;2023-05-10T06:04:48;12.70;99.90
13426;DHT22;6785;57.918;12.530;2023-05-10T06:07:14;12.80;99.90
13426;DHT22;6785;57.918;12.530;2023-05-10T06:09:42;12.90;99.90
13426;DHT22;6785;57.918;12.530;2023-05-10T06:12:08;13.00;99.90
13426;DHT22;6785;57.918;12.530;2023-05-10T06:14:37;13.10;99.90
13426;DHT22;6785;57.918;12.530;2023-05-10T06:17:03;13.20;99.90
13426;DHT22;6785;57.918;12.530;2023-05-10T06:19:31;13.40;99.90
13426;DHT22;6785;57.918;12.530;2023-05-10T06:21:58;13.50;99.90
13426;DHT22;6785;57.918;12.530;2023-05-10T06:24:25;13.70;99.90
13426;DHT22;6785;57.918;12.530;2023-05-10T06:26:52;14.00;99.90
13426;DHT22;6785;57.918;12.530;2023-05-10T06:29:19;14.10;99.90
13426;DHT22;6785;57.918;12.530;2023-05-10T06:31:45;14.20;99.90
13426;DHT22;6785;57.918;12.530;2023-05-10T06:34:13;14.40;99.90
13426;DHT22;6785;57.918;12.530;2023-05-10T06:36:41;14.40;99.90
13426;DHT22;6785;57.918;12.530;2023-05-10T06:39:08;14.60;99.80
13426;DHT22;6785;57.918;12.530;2023-05-10T06:41:37;14.90;99.90
13426;DHT22;6785;57.918;12.530;2023-05-10T06:44:04;15.10;99.40
13426;DHT22;6785;57.918;12.530;2023-05-10T06:46:30;15.30;99.90
13426;DHT22;6785;57.918;12.530;2023-05-10T06:48:57;15.40;99.00
13426;DHT22;6785;57.918;12.530;2023-05-10T06:51:24;15.50;99.20
13426;DHT22;6785;57.918;12.530;2023-05-10T06:53:52;15.60;98.60
13426;DHT22;6785;57.918;12.530;2023-05-10T06:56:20;15.60;98.40
13426;DHT22;6785;57.918;12.530;2023-05-10T06:58:47;15.70;98.40
13426;DHT22;6785;57.918;12.530;2023-05-10T07:01:14;15.90;99.00
13426;DHT22;6785;57.918;12.530;2023-05-10T07:03:41;16.10;97.80
13426;DHT22;6785;57.918;12.530;2023-05-10T07:06:08;16.30;98.00
13426;DHT22;6785;57.918;12.530;2023-05-10T07:08:34;16.40;98.30
13426;DHT22;6785;57.918;12.530;2023-05-10T07:11:04;16.70;98.20
13426;DHT22;6785;57.918;12.530;2023-05-10T07:13:33;16.80;96.90
13426;DHT22;6785;57.918;12.530;2023-05-10T07:16:00;17.00;97.90
13426;DHT22;6785;57.918;12.530;2023-05-10T07:18:27;17.20;96.20
13426;DHT22;6785;57.918;12.530;2023-05-10T07:20:54;17.20;97.20
13426;DHT22;6785;57.918;12.530;2023-05-10T07:23:21;17.10;95.80
13426;DHT22;6785;57.918;12.530;2023-05-10T07:25:48;16.90;96.90
13426;DHT22;6785;57.918;12.530;2023-05-10T07:28:16;17.30;97.00
13426;DHT22;6785;57.918;12.530;2023-05-10T07:30:43;17.60;96.00
13426;DHT22;6785;57.918;12.530;2023-05-10T07:33:12;17.90;95.80
13426;DHT22;6785;57.918;12.530;2023-05-10T07:35:39;18.10;95.30
13426;DHT22;6785;57.918;12.530;2023-05-10T07:38:05;18.20;97.00
13426;DHT22;6785;57.918;12.530;2023-05-10T07:40:32;18.10;95.10
13426;DHT22;6785;57.918;12.530;2023-05-10T07:42:59;18.30;95.40
13426;DHT22;6785;57.918;12.530;2023-05-10T07:45:28;18.40;93.90
13426;DHT22;6785;57.918;12.530;2023-05-10T07:47:55;18.60;94.20
13426;DHT22;6785;57.918;12.530;2023-05-10T07:50:22;18.80;94.80
13426;DHT22;6785;57.918;12.530;2023-05-10T07:52:51;18.50;95.20
13426;DHT22;6785;57.918;12.530;2023-05-10T07:55:19;18.40;95.50
13426;DHT22;6785;57.918;12.530;2023-05-10T07:57:46;18.30;94.30
13426;DHT22;6785;57.918;12.530;2023-05-10T08:00:18;18.30;93.50
13426;DHT22;6785;57.918;12.530;2023-05-10T08:02:47;18.20;93.30
13426;DHT22;6785;57.918;12.530;2023-05-10T08:05:14;18.20;93.20
13426;DHT22;6785;57.918;12.530;2023-05-10T08:07:43;18.40;93.80
13426;DHT22;6785;57.918;12.530;2023-05-10T08:10:10;18.50;93.80
13426;DHT22;6785;57.918;12.530;2023-05-10T08:12:37;18.50;94.00
13426;DHT22;6785;57.918;12.530;2023-05-10T08:15:05;18.60;93.70
13426;DHT22;6785;57.918;12.530;2023-05-10T08:17:32;18.50;92.80
13426;DHT22;6785;57.918;12.530;2023-05-10T08:20:00;18.70;94.00
13426;DHT22;6785;57.918;12.530;2023-05-10T08:22:27;18.80;94.00
13426;DHT22;6785;57.918;12.530;2023-05-10T08:24:54;18.70;93.10
13426;DHT22;6785;57.918;12.530;2023-05-10T08:27:20;18.70;94.00
13426;DHT22;6785;57.918;12.530;2023-05-10T08:29:47;18.80;92.10
13426;DHT22;6785;57.918;12.530;2023-05-10T08:32:14;18.70;93.30
13426;DHT22;6785;57.918;12.530;2023-05-10T08:34:40;18.60;92.90
13426;DHT22;6785;57.918;12.530;2023-05-10T08:37:09;18.60;93.10
13426;DHT22;6785;57.918;12.530;2023-05-10T08:39:38;18.50;92.30
13426;DHT22;6785;57.918;12.530;2023-05-10T08:42:05;18.60;92.40
13426;DHT22;6785;57.918;12.530;2023-05-10T08:44:34;18.70;92.40
13426;DHT22;6785;57.918;12.530;2023-05-10T08:47:04;18.80;92.20
13426;DHT22;6785;57.918;12.530;2023-05-10T08:49:32;18.90;92.20
13426;DHT22;6785;57.918;12.530;2023-05-10T08:52:02;18.80;92.50
13426;DHT22;6785;57.918;12.530;2023-05-10T08:54:31;18.80;92.80
13426;DHT22;6785;57.918;12.530;2023-05-10T08:56:58;18.80;93.90
13426;DHT22;6785;57.918;12.530;2023-05-10T08:59:25;19.00;92.30
13426;DHT22;6785;57.918;12.530;2023-05-10T09:01:52;19.00;92.30
13426;DHT22;6785;57.918;12.530;2023-05-10T09:04:21;19.00;91.60
13426;DHT22;6785;57.918;12.530;2023-05-10T09:06:48;19.00;91.20
13426;DHT22;6785;57.918;12.530;2023-05-10T09:09:15;19.00;92.60
13426;DHT22;6785;57.918;12.530;2023-05-10T09:11:44;19.10;92.20
13426;DHT22;6785;57.918;12.530;2023-05-10T09:14:12;19.10;90.70
13426;DHT22;6785;57.918;12.530;2023-05-10T09:16:39;19.20;91.20
13426;DHT22;6785;57.918;12.530;2023-05-10T09:19:06;19.10;90.30
13426;DHT22;6785;57.918;12.530;2023-05-10T09:21:35;19.10;90.40
13426;DHT22;6785;57.918;12.530;2023-05-10T09:24:03;19.20;91.50
13426;DHT22;6785;57.918;12.530;2023-05-10T09:26:31;19.30;90.00
13426;DHT22;6785;57.918;12.530;2023-05-10T09:28:59;19.40;89.30
13426;DHT22;6785;57.918;12.530;2023-05-10T09:31:43;19.30;88.40
13426;DHT22;6785;57.918;12.530;2023-05-10T09:34:10;19.30;90.40
13426;DHT22;6785;57.918;12.530;2023-05-10T09:36:37;19.20;91.80
13426;DHT22;6785;57.918;12.530;2023-05-10T09:39:15;19.20;88.50
13426;DHT22;6785;57.918;12.530;2023-05-10T09:41:42;19.00;89.80
13426;DHT22;6785;57.918;12.530;2023-05-10T09:44:10;19.00;90.10
13426;DHT22;6785;57.918;12.530;2023-05-10T09:46:38;18.90;89.10
13426;DHT22;6785;57.918;12.530;2023-05-10T09:49:05;19.00;91.90
13426;DHT22;6785;57.918;12.530;2023-05-10T09:51:32;19.20;89.40
13426;DHT22;6785;57.918;12.530;2023-05-10T09:54:09;19.30;88.50
13426;DHT22;6785;57.918;12.530;2023-05-10T09:56:37;19.30;90.30
13426;DHT22;6785;57.918;12.530;2023-05-10T09:59:07;19.30;89.00
13426;DHT22;6785;57.918;12.530;2023-05-10T10:01:36;19.30;88.00
13426;DHT22;6785;57.918;12.530;2023-05-10T10:04:04;19.50;90.00
13426;DHT22;6785;57.918;12.530;2023-05-10T10:06:35;19.20;90.10
13426;DHT22;6785;57.918;12.530;2023-05-10T10:09:03;19.20;90.30
13426;DHT22;6785;57.918;12.530;2023-05-10T10:11:30;19.30;90.10
13426;DHT22;6785;57.918;12.530;2023-05-10T10:13:56;19.50;91.10
13426;DHT22;6785;57.918;12.530;2023-05-10T10:16:24;19.60;87.60
13426;DHT22;6785;57.918;12.530;2023-05-10T10:18:53;19.70;88.90
13426;DHT22;6785;57.918;12.530;2023-05-10T10:21:20;19.90;90.40
13426;DHT22;6785;57.918;12.530;2023-05-10T10:23:47;19.90;90.70
13426;DHT22;6785;57.918;12.530;2023-05-10T10:26:15;19.80;91.00
13426;DHT22;6785;57.918;12.530;2023-05-10T10:28:49;19.60;89.10
13426;DHT22;6785;57.918;12.530;2023-05-10T10:31:26;19.80;90.90
13426;DHT22;6785;57.918;12.530;2023-05-10T10:34:03;19.70;87.90
13426;DHT22;6785;57.918;12.530;2023-05-10T10:36:32;19.80;88.70
13426;DHT22;6785;57.918;12.530;2023-05-10T10:39:09;19.80;88.50
13426;DHT22;6785;57.918;12.530;2023-05-10T10:41:37;19.90;88.10
13426;DHT22;6785;57.918;12.530;2023-05-10T10:44:39;20.00;88.50
13426;DHT22;6785;57.918;12.530;2023-05-10T10:47:29;20.10;87.70
13426;DHT22;6785;57.918;12.530;2023-05-10T10:50:07;20.20;88.30
13426;DHT22;6785;57.918;12.530;2023-05-10T10:52:36;20.20;89.20
13426;DHT22;6785;57.918;12.530;2023-05-10T10:55:04;20.30;89.50
13426;DHT22;6785;57.918;12.530;2023-05-10T10:57:35;20.40;89.30
13426;DHT22;6785;57.918;12.530;2023-05-10T11:00:22;20.40;86.10
13426;DHT22;6785;57.918;12.530;2023-05-10T11:02:51;20.50;89.90
13426;DHT22;6785;57.918;12.530;2023-05-10T11:05:35;20.40;85.40
13426;DHT22;6785;57.918;12.530;2023-05-10T11:08:08;20.50;86.40
13426;DHT22;6785;57.918;12.530;2023-05-10T11:10:36;20.60;87.10
13426;DHT22;6785;57.918;12.530;2023-05-10T11:13:04;20.60;86.50
13426;DHT22;6785;57.918;12.530;2023-05-10T11:15:33;20.60;88.00
13426;DHT22;6785;57.918;12.530;2023-05-10T11:18:00;20.70;86.40
13426;DHT22;6785;57.918;12.530;2023-05-10T11:20:44;20.70;88.40
13426;DHT22;6785;57.918;12.530;2023-05-10T11:23:13;20.80;86.30
13426;DHT22;6785;57.918;12.530;2023-05-10T11:25:42;20.80;86.90
13426;DHT22;6785;57.918;12.530;2023-05-10T11:28:10;20.90;85.90
13426;DHT22;6785;57.918;12.530;2023-05-10T11:30:39;20.90;85.70
13426;DHT22;6785;57.918;12.530;2023-05-10T11:33:06;20.80;83.00
13426;DHT22;6785;57.918;12.530;2023-05-10T11:35:37;20.80;84.50
13426;DHT22;6785;57.918;12.530;2023-05-10T11:38:07;20.90;90.20
13426;DHT22;6785;57.918;12.530;2023-05-10T11:40:34;21.00;84.60
13426;DHT22;6785;57.918;12.530;2023-05-10T11:43:01;21.00;90.20
13426;DHT22;6785;57.918;12.530;2023-05-10T11:45:28;21.00;83.00
13426;DHT22;6785;57.918;12.530;2023-05-10T11:47:57;20.90;80.00
13426;DHT22;6785;57.918;12.530;2023-05-10T11:50:24;21.00;80.40
13426;DHT22;6785;57.918;12.530;2023-05-10T11:52:52;21.00;81.70
13426;DHT22;6785;57.918;12.530;2023-05-10T11:55:20;20.90;82.10
13426;DHT22;6785;57.918;12.530;2023-05-10T11:57:51;21.00;81.40
13426;DHT22;6785;57.918;12.530;2023-05-10T12:00:18;20.80;80.40
13426;DHT22;6785;57.918;12.530;2023-05-10T12:02:45;20.80;83.70
13426;DHT22;6785;57.918;12.530;2023-05-10T12:05:13;20.90;79.60
13426;DHT22;6785;57.918;12.530;2023-05-10T12:07:40;20.90;81.10
13426;DHT22;6785;57.918;12.530;2023-05-10T12:10:08;20.80;79.20
13426;DHT22;6785;57.918;12.530;2023-05-10T12:12:39;20.90;79.10
13426;DHT22;6785;57.918;12.530;2023-05-10T12:15:10;21.00;81.10
13426;DHT22;6785;57.918;12.530;2023-05-10T12:17:38;21.10;80.40
13426;DHT22;6785;57.918;12.530;2023-05-10T12:20:16;21.20;82.90
13426;DHT22;6785;57.918;12.530;2023-05-10T12:22:47;21.50;81.70
13426;DHT22;6785;57.918;12.530;2023-05-10T12:25:14;21.50;81.10
13426;DHT22;6785;57.918;12.530;2023-05-10T12:27:48;21.50;80.20
13426;DHT22;6785;57.918;12.530;2023-05-10T12:30:19;21.40;79.30
13426;DHT22;6785;57.918;12.530;2023-05-10T12:32:46;21.40;78.40
13426;DHT22;6785;57.918;12.530;2023-05-10T12:35:13;21.30;77.80
13426;DHT22;6785;57.918;12.530;2023-05-10T12:37:40;21.30;76.80
13426;DHT22;6785;57.918;12.530;2023-05-10T12:40:08;21.30;78.40
13426;DHT22;6785;57.918;12.530;2023-05-10T12:42:36;21.40;77.30
13426;DHT22;6785;57.918;12.530;2023-05-10T12:45:07;21.50;76.00
13426;DHT22;6785;57.918;12.530;2023-05-10T12:47:34;21.50;73.90
13426;DHT22;6785;57.918;12.530;2023-05-10T12:50:02;21.40;74.20
13426;DHT22;6785;57.918;12.530;2023-05-10T12:52:29;21.30;75.10
13426;DHT22;6785;57.918;12.530;2023-05-10T12:54:57;21.20;76.80
13426;DHT22;6785;57.918;12.530;2023-05-10T12:57:24;21.00;73.60
13426;DHT22;6785;57.918;12.530;2023-05-10T12:59:51;21.10;76.30
13426;DHT22;6785;57.918;12.530;2023-05-10T13:02:19;21.20;76.00
13426;DHT22;6785;57.918;12.530;2023-05-10T13:04:47;21.30;79.70
13426;DHT22;6785;57.918;12.530;2023-05-10T13:07:14;21.40;76.00
13426;DHT22;6785;57.918;12.530;2023-05-10T13:09:41;21.20;76.50
13426;DHT22;6785;57.918;12.530;2023-05-10T13:12:08;21.40;74.90
13426;DHT22;6785;57.918;12.530;2023-05-10T13:14:35;21.50;75.40
13426;DHT22;6785;57.918;12.530;2023-05-10T13:17:02;21.60;73.80
13426;DHT22;6785;57.918;12.530;2023-05-10T13:19:30;21.70;72.20
13426;DHT22;6785;57.918;12.530;2023-05-10T13:21:57;21.80;75.90
13426;DHT22;6785;57.918;12.530;2023-05-10T13:24:24;21.70;72.40
13426;DHT22;6785;57.918;12.530;2023-05-10T13:26:51;21.70;77.40
13426;DHT22;6785;57.918;12.530;2023-05-10T13:29:18;21.70;79.20
13426;DHT22;6785;57.918;12.530;2023-05-10T13:31:46;21.70;71.70
13426;DHT22;6785;57.918;12.530;2023-05-10T13:34:13;21.60;70.60
13426;DHT22;6785;57.918;12.530;2023-05-10T13:36:42;21.50;73.90
13426;DHT22;6785;57.918;12.530;2023-05-10T13:39:08;21.50;71.80
13426;DHT22;6785;57.918;12.530;2023-05-10T13:41:35;21.40;72.40
13426;DHT22;6785;57.918;12.530;2023-05-10T13:44:02;21.30;74.00
13426;DHT22;6785;57.918;12.530;2023-05-10T13:46:29;21.40;77.00
13426;DHT22;6785;57.918;12.530;2023-05-10T13:48:56;21.50;73.90
13426;DHT22;6785;57.918;12.530;2023-05-10T13:51:23;21.60;79.50
13426;DHT22;6785;57.918;12.530;2023-05-10T13:53:51;21.60;74.20
13426;DHT22;6785;57.918;12.530;2023-05-10T13:56:18;21.50;78.50
13426;DHT22;6785;57.918;12.530;2023-05-10T13:58:45;21.50;72.90
13426;DHT22;6785;57.918;12.530;2023-05-10T14:01:12;21.60;73.30
13426;DHT22;6785;57.918;12.530;2023-05-10T14:03:39;21.60;73.20
13426;DHT22;6785;57.918;12.530;2023-05-10T14:06:07;21.70;71.30
13426;DHT22;6785;57.918;12.530;2023-05-10T14:08:34;21.70;70.10
13426;DHT22;6785;57.918;12.530;2023-05-10T14:11:03;21.50;70.50
13426;DHT22;6785;57.918;12.530;2023-05-10T14:13:30;21.50;69.10
13426;DHT22;6785;57.918;12.530;2023-05-10T14:15:56;21.50;71.40
13426;DHT22;6785;57.918;12.530;2023-05-10T14:18:25;21.40;69.30
13426;DHT22;6785;57.918;12.530;2023-05-10T14:20:52;21.40;70.90
13426;DHT22;6785;57.918;12.530;2023-05-10T14:23:21;21.50;72.20
13426;DHT22;6785;57.918;12.530;2023-05-10T14:25:49;21.40;70.80
13426;DHT22;6785;57.918;12.530;2023-05-10T14:28:18;21.40;71.20
13426;DHT22;6785;57.918;12.530;2023-05-10T14:30:46;21.30;69.70
13426;DHT22;6785;57.918;12.530;2023-05-10T14:33:13;21.40;73.60
13426;DHT22;6785;57.918;12.530;2023-05-10T14:35:40;21.50;69.80
13426;DHT22;6785;57.918;12.530;2023-05-10T14:38:07;21.40;69.20
13426;DHT22;6785;57.918;12.530;2023-05-10T14:40:33;21.20;69.40
13426;DHT22;6785;57.918;12.530;2023-05-10T14:43:01;21.10;69.40
13426;DHT22;6785;57.918;12.530;2023-05-10T14:45:29;20.80;67.50
13426;DHT22;6785;57.918;12.530;2023-05-10T14:47:56;20.70;70.40
13426;DHT22;6785;57.918;12.530;2023-05-10T14:50:24;20.80;69.40
13426;DHT22;6785;57.918;12.530;2023-05-10T14:52:51;20.50;70.60
13426;DHT22;6785;57.918;12.530;2023-05-10T14:55:18;20.40;73.40
13426;DHT22;6785;57.918;12.530;2023-05-10T14:57:45;20.40;73.00
13426;DHT22;6785;57.918;12.530;2023-05-10T15:00:15;20.30;73.50
13426;DHT22;6785;57.918;12.530;2023-05-10T15:02:43;20.20;70.90
13426;DHT22;6785;57.918;12.530;2023-05-10T15:05:10;20.10;71.80
13426;DHT22;6785;57.918;12.530;2023-05-10T15:07:37;19.90;74.40
13426;DHT22;6785;57.918;12.530;2023-05-10T15:10:05;19.80;74.60
13426;DHT22;6785;57.918;12.530;2023-05-10T15:12:32;19.90;72.20
13426;DHT22;6785;57.918;12.530;2023-05-10T15:14:58;19.90;73.20
13426;DHT22;6785;57.918;12.530;2023-05-10T15:17:25;19.80;70.00
13426;DHT22;6785;57.918;12.530;2023-05-10T15:19:53;19.80;69.70
13426;DHT22;6785;57.918;12.530;2023-05-10T15:22:20;19.70;69.70
13426;DHT22;6785;57.918;12.530;2023-05-10T15:24:47;19.60;68.20
13426;DHT22;6785;57.918;12.530;2023-05-10T15:27:14;19.50;69.80
13426;DHT22;6785;57.918;12.530;2023-05-10T15:29:41;19.40;72.00
13426;DHT22;6785;57.918;12.530;2023-05-10T15:32:07;19.30;73.00
13426;DHT22;6785;57.918;12.530;2023-05-10T15:34:34;19.20;73.30
13426;DHT22;6785;57.918;12.530;2023-05-10T15:37:02;19.20;74.00
13426;DHT22;6785;57.918;12.530;2023-05-10T15:39:29;19.30;73.10
13426;DHT22;6785;57.918;12.530;2023-05-10T15:41:56;19.40;73.40
13426;DHT22;6785;57.918;12.530;2023-05-10T15:44:22;19.50;71.60